sensor_id;sensor_type;location;lat;lon;timestamp;P1;durP1;ratioP1;P2;durP2;ratioP2
15246;SDS011;7726;48.820;9.248;2022-07-01T00:00:22;16.80;;;1.42;;
15246;SDS011;7726;48.820;9.248;2022-07-01T00:02:50;23.20;;;1.80;;
15246;SDS011;7726;48.820;9.248;2022-07-01T00:05:17;7.28;;;1.13;;
15246;SDS011;7726;48.820;9.248;2022-07-01T00:07:44;13.45;;;1.10;;
15246;SDS011;7726;48.820;9.248;2022-07-01T00:10:12;22.00;;;1.30;;
15246;SDS011;7726;48.820;9.248;2022-07-01T00:12:39;21.60;;;1.45;;
15246;SDS011;7726;48.820;9.248;2022-07-01T00:15:06;15.82;;;1.42;;
15246;SDS011;7726;48.820;9.248;2022-07-01T00:17:34;6.95;;;1.20;;
15246;SDS011;7726;48.820;9.248;2022-07-01T00:20:03;6.85;;;1.08;;
15246;SDS011;7726;48.820;9.248;2022-07-01T00:22:30;7.82;;;1.00;;
15246;SDS011;7726;48.820;9.248;2022-07-01T00:24:57;7.57;;;1.15;;
15246;SDS011;7726;48.820;9.248;2022-07-01T00:27:24;6.35;;;1.17;;
15246;SDS011;7726;48.820;9.248;2022-07-01T00:29:52;0.95;;;0.82;;
15246;SDS011;7726;48.820;9.248;2022-07-01T00:32:19;2.97;;;0.90;;
15246;SDS011;7726;48.820;9.248;2022-07-01T00:34:46;2.50;;;0.90;;
15246;SDS011;7726;48.820;9.248;2022-07-01T00:37:14;2.13;;;1.23;;
15246;SDS011;7726;48.820;9.248;2022-07-01T00:39:42;2.28;;;0.80;;
15246;SDS011;7726;48.820;9.248;2022-07-01T00:42:09;3.17;;;0.80;;
15246;SDS011;7726;48.820;9.248;2022-07-01T00:44:36;5.68;;;1.10;;
15246;SDS011;7726;48.820;9.248;2022-07-01T00:47:04;3.85;;;0.90;;
15246;SDS011;7726;48.820;9.248;2022-07-01T00:49:34;1.50;;;0.93;;
15246;SDS011;7726;48.820;9.248;2022-07-01T00:52:02;1.52;;;0.85;;
15246;SDS011;7726;48.820;9.248;2022-07-01T00:54:31;3.42;;;0.70;;
15246;SDS011;7726;48.820;9.248;2022-07-01T00:57:04;3.70;;;0.90;;
15246;SDS011;7726;48.820;9.248;2022-07-01T00:59:32;2.20;;;0.70;;
15246;SDS011;7726;48.820;9.248;2022-07-01T01:02:00;0.73;;;0.70;;
15246;SDS011;7726;48.820;9.248;2022-07-01T01:04:27;1.17;;;0.80;;
15246;SDS011;7726;48.820;9.248;2022-07-01T01:06:55;4.97;;;0.73;;
15246;SDS011;7726;48.820;9.248;2022-07-01T01:09:22;2.83;;;0.80;;
15246;SDS011;7726;48.820;9.248;2022-07-01T01:11:51;2.85;;;0.80;;
15246;SDS011;7726;48.820;9.248;2022-07-01T01:14:19;2.15;;;0.77;;
15246;SDS011;7726;48.820;9.248;2022-07-01T01:16:46;4.85;;;0.80;;
15246;SDS011;7726;48.820;9.248;2022-07-01T01:19:13;1.20;;;0.80;;
15246;SDS011;7726;48.820;9.248;2022-07-01T01:21:42;1.33;;;0.73;;
15246;SDS011;7726;48.820;9.248;2022-07-01T01:24:09;0.80;;;0.60;;
15246;SDS011;7726;48.820;9.248;2022-07-01T01:26:36;0.82;;;0.68;;
15246;SDS011;7726;48.820;9.248;2022-07-01T01:29:04;3.28;;;0.80;;
15246;SDS011;7726;48.820;9.248;2022-07-01T01:31:32;1.02;;;0.60;;
15246;SDS011;7726;48.820;9.248;2022-07-01T01:33:59;2.25;;;0.80;;
15246;SDS011;7726;48.820;9.248;2022-07-01T01:36:26;0.65;;;0.65;;
15246;SDS011;7726;48.820;9.248;2022-07-01T01:38:55;2.63;;;0.82;;
15246;SDS011;7726;48.820;9.248;2022-07-01T01:41:24;1.90;;;0.73;;
15246;SDS011;7726;48.820;9.248;2022-07-01T01:43:52;0.63;;;0.60;;
15246;SDS011;7726;48.820;9.248;2022-07-01T01:46:19;0.90;;;0.77;;
15246;SDS011;7726;48.820;9.248;2022-07-01T01:48:46;2.10;;;0.63;;
15246;SDS011;7726;48.820;9.248;2022-07-01T01:51:13;0.80;;;0.80;;
15246;SDS011;7726;48.820;9.248;2022-07-01T01:53:43;0.93;;;0.73;;
15246;SDS011;7726;48.820;9.248;2022-07-01T01:56:12;0.93;;;0.73;;
15246;SDS011;7726;48.820;9.248;2022-07-01T01:58:39;1.52;;;0.90;;
15246;SDS011;7726;48.820;9.248;2022-07-01T02:01:08;1.03;;;0.90;;
15246;SDS011;7726;48.820;9.248;2022-07-01T02:03:35;1.75;;;0.75;;
15246;SDS011;7726;48.820;9.248;2022-07-01T02:06:03;1.33;;;0.55;;
15246;SDS011;7726;48.820;9.248;2022-07-01T02:08:30;0.95;;;0.80;;
15246;SDS011;7726;48.820;9.248;2022-07-01T02:10:57;1.10;;;0.88;;
15246;SDS011;7726;48.820;9.248;2022-07-01T02:13:26;2.42;;;0.70;;
15246;SDS011;7726;48.820;9.248;2022-07-01T02:15:53;0.77;;;0.77;;
15246;SDS011;7726;48.820;9.248;2022-07-01T02:18:20;1.13;;;0.83;;
15246;SDS011;7726;48.820;9.248;2022-07-01T02:20:47;2.40;;;0.82;;
15246;SDS011;7726;48.820;9.248;2022-07-01T02:23:15;1.83;;;1.10;;
15246;SDS011;7726;48.820;9.248;2022-07-01T02:25:42;1.85;;;0.77;;
15246;SDS011;7726;48.820;9.248;2022-07-01T02:28:11;1.42;;;0.88;;
15246;SDS011;7726;48.820;9.248;2022-07-01T02:30:40;1.17;;;1.08;;
15246;SDS011;7726;48.820;9.248;2022-07-01T02:33:07;1.05;;;1.00;;
15246;SDS011;7726;48.820;9.248;2022-07-01T02:35:35;1.00;;;1.00;;
15246;SDS011;7726;48.820;9.248;2022-07-01T02:38:03;0.95;;;0.70;;
15246;SDS011;7726;48.820;9.248;2022-07-01T02:40:30;1.10;;;1.02;;
15246;SDS011;7726;48.820;9.248;2022-07-01T02:42:59;1.20;;;0.95;;
15246;SDS011;7726;48.820;9.248;2022-07-01T02:45:26;1.85;;;1.10;;
15246;SDS011;7726;48.820;9.248;2022-07-01T02:47:54;1.25;;;0.90;;
15246;SDS011;7726;48.820;9.248;2022-07-01T02:50:21;0.77;;;0.77;;
15246;SDS011;7726;48.820;9.248;2022-07-01T02:52:49;0.90;;;0.90;;
15246;SDS011;7726;48.820;9.248;2022-07-01T02:55:16;0.98;;;0.98;;
15246;SDS011;7726;48.820;9.248;2022-07-01T02:57:43;0.82;;;0.82;;
15246;SDS011;7726;48.820;9.248;2022-07-01T03:00:12;1.70;;;1.00;;
15246;SDS011;7726;48.820;9.248;2022-07-01T03:02:39;2.35;;;1.02;;
15246;SDS011;7726;48.820;9.248;2022-07-01T03:05:08;1.40;;;0.80;;
15246;SDS011;7726;48.820;9.248;2022-07-01T03:07:36;2.30;;;0.80;;
15246;SDS011;7726;48.820;9.248;2022-07-01T03:10:03;0.95;;;0.95;;
15246;SDS011;7726;48.820;9.248;2022-07-01T03:12:31;1.58;;;0.98;;
15246;SDS011;7726;48.820;9.248;2022-07-01T03:15:00;2.20;;;0.90;;
15246;SDS011;7726;48.820;9.248;2022-07-01T03:17:28;0.63;;;0.63;;
15246;SDS011;7726;48.820;9.248;2022-07-01T03:19:55;0.88;;;0.88;;
15246;SDS011;7726;48.820;9.248;2022-07-01T03:22:25;0.85;;;0.70;;
15246;SDS011;7726;48.820;9.248;2022-07-01T03:24:53;1.65;;;0.70;;
15246;SDS011;7726;48.820;9.248;2022-07-01T03:27:20;1.02;;;0.88;;
15246;SDS011;7726;48.820;9.248;2022-07-01T03:29:48;0.70;;;0.70;;
15246;SDS011;7726;48.820;9.248;2022-07-01T03:32:15;1.67;;;0.95;;
15246;SDS011;7726;48.820;9.248;2022-07-01T03:34:42;0.80;;;0.80;;
15246;SDS011;7726;48.820;9.248;2022-07-01T03:37:10;0.82;;;0.82;;
15246;SDS011;7726;48.820;9.248;2022-07-01T03:39:39;0.80;;;0.80;;
15246;SDS011;7726;48.820;9.248;2022-07-01T03:42:07;0.85;;;0.80;;
15246;SDS011;7726;48.820;9.248;2022-07-01T03:44:35;1.13;;;1.02;;
15246;SDS011;7726;48.820;9.248;2022-07-01T03:47:02;0.82;;;0.82;;
15246;SDS011;7726;48.820;9.248;2022-07-01T03:49:30;1.33;;;1.00;;
15246;SDS011;7726;48.820;9.248;2022-07-01T03:51:58;1.05;;;0.80;;
15246;SDS011;7726;48.820;9.248;2022-07-01T03:54:25;2.45;;;0.88;;
15246;SDS011;7726;48.820;9.248;2022-07-01T03:57:05;0.88;;;0.88;;
15246;SDS011;7726;48.820;9.248;2022-07-01T03:59:34;1.95;;;1.10;;
15246;SDS011;7726;48.820;9.248;2022-07-01T04:02:01;1.05;;;0.90;;
15246;SDS011;7726;48.820;9.248;2022-07-01T04:04:29;1.38;;;0.98;;
15246;SDS011;7726;48.820;9.248;2022-07-01T04:06:57;0.80;;;0.80;;
15246;SDS011;7726;48.820;9.248;2022-07-01T04:09:24;0.90;;;0.90;;
15246;SDS011;7726;48.820;9.248;2022-07-01T04:11:52;1.52;;;0.93;;
15246;SDS011;7726;48.820;9.248;2022-07-01T04:14:21;15.18;;;1.73;;
15246;SDS011;7726;48.820;9.248;2022-07-01T04:16:49;1.88;;;1.45;;
15246;SDS011;7726;48.820;9.248;2022-07-01T04:19:16;1.52;;;1.20;;
15246;SDS011;7726;48.820;9.248;2022-07-01T04:21:44;1.38;;;1.23;;
15246;SDS011;7726;48.820;9.248;2022-07-01T04:24:29;1.83;;;1.40;;
15246;SDS011;7726;48.820;9.248;2022-07-01T04:26:57;2.35;;;1.42;;
15246;SDS011;7726;48.820;9.248;2022-07-01T04:29:26;2.05;;;1.38;;
15246;SDS011;7726;48.820;9.248;2022-07-01T04:31:54;1.23;;;1.20;;
15246;SDS011;7726;48.820;9.248;2022-07-01T04:34:22;3.28;;;1.50;;
15246;SDS011;7726;48.820;9.248;2022-07-01T04:36:49;2.20;;;1.73;;
15246;SDS011;7726;48.820;9.248;2022-07-01T04:39:16;1.40;;;1.30;;
15246;SDS011;7726;48.820;9.248;2022-07-01T04:41:43;1.48;;;1.35;;
15246;SDS011;7726;48.820;9.248;2022-07-01T04:44:27;1.70;;;1.40;;
15246;SDS011;7726;48.820;9.248;2022-07-01T04:46:55;1.75;;;1.20;;
15246;SDS011;7726;48.820;9.248;2022-07-01T04:49:22;1.80;;;1.52;;
15246;SDS011;7726;48.820;9.248;2022-07-01T04:51:49;4.22;;;1.60;;
15246;SDS011;7726;48.820;9.248;2022-07-01T04:54:16;1.60;;;1.50;;
15246;SDS011;7726;48.820;9.248;2022-07-01T04:56:43;3.80;;;1.48;;
15246;SDS011;7726;48.820;9.248;2022-07-01T04:59:11;3.72;;;1.40;;
15246;SDS011;7726;48.820;9.248;2022-07-01T05:01:39;1.58;;;1.48;;
15246;SDS011;7726;48.820;9.248;2022-07-01T05:04:07;2.00;;;1.50;;
15246;SDS011;7726;48.820;9.248;2022-07-01T05:06:34;2.00;;;1.38;;
15246;SDS011;7726;48.820;9.248;2022-07-01T05:09:01;1.42;;;1.33;;
15246;SDS011;7726;48.820;9.248;2022-07-01T05:11:28;1.60;;;1.50;;
15246;SDS011;7726;48.820;9.248;2022-07-01T05:13:55;2.70;;;1.33;;
15246;SDS011;7726;48.820;9.248;2022-07-01T05:16:23;1.77;;;1.13;;
15246;SDS011;7726;48.820;9.248;2022-07-01T05:18:58;1.42;;;1.33;;
15246;SDS011;7726;48.820;9.248;2022-07-01T05:21:42;1.63;;;1.30;;
15246;SDS011;7726;48.820;9.248;2022-07-01T05:24:29;2.25;;;1.25;;
15246;SDS011;7726;48.820;9.248;2022-07-01T05:26:57;1.30;;;1.20;;
15246;SDS011;7726;48.820;9.248;2022-07-01T05:29:24;1.52;;;1.33;;
15246;SDS011;7726;48.820;9.248;2022-07-01T05:31:51;4.28;;;1.50;;
15246;SDS011;7726;48.820;9.248;2022-07-01T05:34:20;1.45;;;1.30;;
15246;SDS011;7726;48.820;9.248;2022-07-01T05:36:47;2.53;;;1.45;;
15246;SDS011;7726;48.820;9.248;2022-07-01T05:39:14;1.65;;;1.45;;
15246;SDS011;7726;48.820;9.248;2022-07-01T05:41:41;3.50;;;1.27;;
15246;SDS011;7726;48.820;9.248;2022-07-01T05:44:09;4.55;;;1.52;;
15246;SDS011;7726;48.820;9.248;2022-07-01T05:46:36;1.48;;;1.38;;
15246;SDS011;7726;48.820;9.248;2022-07-01T05:49:04;2.47;;;1.20;;
15246;SDS011;7726;48.820;9.248;2022-07-01T05:51:32;3.22;;;1.73;;
15246;SDS011;7726;48.820;9.248;2022-07-01T05:53:59;3.30;;;1.67;;
15246;SDS011;7726;48.820;9.248;2022-07-01T05:56:27;1.88;;;1.40;;
15246;SDS011;7726;48.820;9.248;2022-07-01T05:58:54;3.78;;;1.80;;
15246;SDS011;7726;48.820;9.248;2022-07-01T06:01:21;2.90;;;1.40;;
15246;SDS011;7726;48.820;9.248;2022-07-01T06:03:48;1.70;;;1.50;;
15246;SDS011;7726;48.820;9.248;2022-07-01T06:06:16;5.00;;;1.83;;
15246;SDS011;7726;48.820;9.248;2022-07-01T06:08:46;2.97;;;1.40;;
15246;SDS011;7726;48.820;9.248;2022-07-01T06:11:13;2.65;;;1.60;;
15246;SDS011;7726;48.820;9.248;2022-07-01T06:13:41;1.83;;;1.60;;
15246;SDS011;7726;48.820;9.248;2022-07-01T06:16:08;3.75;;;1.60;;
15246;SDS011;7726;48.820;9.248;2022-07-01T06:18:35;2.10;;;1.48;;
15246;SDS011;7726;48.820;9.248;2022-07-01T06:21:02;3.75;;;1.65;;
15246;SDS011;7726;48.820;9.248;2022-07-01T06:23:29;2.90;;;1.73;;
15246;SDS011;7726;48.820;9.248;2022-07-01T06:26:00;3.33;;;1.60;;
15246;SDS011;7726;48.820;9.248;2022-07-01T06:28:27;1.55;;;1.45;;
15246;SDS011;7726;48.820;9.248;2022-07-01T06:30:56;1.58;;;1.48;;
15246;SDS011;7726;48.820;9.248;2022-07-01T06:33:23;2.58;;;1.40;;
15246;SDS011;7726;48.820;9.248;2022-07-01T06:35:54;2.70;;;1.52;;
15246;SDS011;7726;48.820;9.248;2022-07-01T06:38:21;4.30;;;1.63;;
15246;SDS011;7726;48.820;9.248;2022-07-01T06:40:48;2.53;;;1.48;;
15246;SDS011;7726;48.820;9.248;2022-07-01T06:43:31;1.83;;;1.60;;
15246;SDS011;7726;48.820;9.248;2022-07-01T06:45:58;1.50;;;1.40;;
15246;SDS011;7726;48.820;9.248;2022-07-01T06:48:25;1.50;;;1.40;;
15246;SDS011;7726;48.820;9.248;2022-07-01T06:50:52;1.92;;;1.30;;
15246;SDS011;7726;48.820;9.248;2022-07-01T06:53:19;2.65;;;1.33;;
15246;SDS011;7726;48.820;9.248;2022-07-01T06:55:46;1.77;;;1.30;;
15246;SDS011;7726;48.820;9.248;2022-07-01T06:58:14;1.50;;;1.40;;
15246;SDS011;7726;48.820;9.248;2022-07-01T07:00:42;1.40;;;1.30;;
15246;SDS011;7726;48.820;9.248;2022-07-01T07:03:09;2.05;;;1.40;;
15246;SDS011;7726;48.820;9.248;2022-07-01T07:05:37;2.53;;;1.38;;
15246;SDS011;7726;48.820;9.248;2022-07-01T07:08:04;3.70;;;1.63;;
15246;SDS011;7726;48.820;9.248;2022-07-01T07:10:31;1.80;;;1.35;;
15246;SDS011;7726;48.820;9.248;2022-07-01T07:12:58;5.15;;;1.48;;
15246;SDS011;7726;48.820;9.248;2022-07-01T07:15:25;2.50;;;1.70;;
15246;SDS011;7726;48.820;9.248;2022-07-01T07:17:53;1.60;;;1.50;;
15246;SDS011;7726;48.820;9.248;2022-07-01T07:20:22;2.67;;;1.33;;
15246;SDS011;7726;48.820;9.248;2022-07-01T07:22:49;2.25;;;1.65;;
15246;SDS011;7726;48.820;9.248;2022-07-01T07:25:16;2.42;;;1.40;;
15246;SDS011;7726;48.820;9.248;2022-07-01T07:27:43;1.67;;;1.58;;
15246;SDS011;7726;48.820;9.248;2022-07-01T07:30:11;3.85;;;1.70;;
15246;SDS011;7726;48.820;9.248;2022-07-01T07:32:39;2.20;;;1.77;;
15246;SDS011;7726;48.820;9.248;2022-07-01T07:35:08;1.73;;;1.63;;
15246;SDS011;7726;48.820;9.248;2022-07-01T07:37:35;1.80;;;1.70;;
15246;SDS011;7726;48.820;9.248;2022-07-01T07:40:02;3.60;;;1.48;;
15246;SDS011;7726;48.820;9.248;2022-07-01T07:42:31;2.83;;;2.10;;
15246;SDS011;7726;48.820;9.248;2022-07-01T07:44:58;3.20;;;1.73;;
15246;SDS011;7726;48.820;9.248;2022-07-01T07:47:26;1.60;;;1.50;;
15246;SDS011;7726;48.820;9.248;2022-07-01T07:49:53;2.85;;;1.60;;
15246;SDS011;7726;48.820;9.248;2022-07-01T07:52:22;2.20;;;1.73;;
15246;SDS011;7726;48.820;9.248;2022-07-01T07:54:49;4.50;;;1.30;;
15246;SDS011;7726;48.820;9.248;2022-07-01T07:57:16;2.42;;;1.40;;
15246;SDS011;7726;48.820;9.248;2022-07-01T07:59:44;1.33;;;1.23;;
15246;SDS011;7726;48.820;9.248;2022-07-01T08:02:11;1.50;;;1.40;;
15246;SDS011;7726;48.820;9.248;2022-07-01T08:04:38;2.13;;;1.30;;
15246;SDS011;7726;48.820;9.248;2022-07-01T08:07:05;3.13;;;1.77;;
15246;SDS011;7726;48.820;9.248;2022-07-01T08:09:34;3.67;;;1.40;;
15246;SDS011;7726;48.820;9.248;2022-07-01T08:12:01;1.67;;;1.58;;
15246;SDS011;7726;48.820;9.248;2022-07-01T08:14:28;1.48;;;1.38;;
15246;SDS011;7726;48.820;9.248;2022-07-01T08:16:56;2.15;;;1.60;;
15246;SDS011;7726;48.820;9.248;2022-07-01T08:19:23;1.35;;;1.33;;
15246;SDS011;7726;48.820;9.248;2022-07-01T08:21:50;2.08;;;1.60;;
15246;SDS011;7726;48.820;9.248;2022-07-01T08:24:17;1.70;;;1.60;;
15246;SDS011;7726;48.820;9.248;2022-07-01T08:26:45;1.92;;;1.73;;
15246;SDS011;7726;48.820;9.248;2022-07-01T08:29:13;1.95;;;1.52;;
15246;SDS011;7726;48.820;9.248;2022-07-01T08:31:40;1.63;;;1.52;;
15246;SDS011;7726;48.820;9.248;2022-07-01T08:34:07;1.98;;;1.67;;
15246;SDS011;7726;48.820;9.248;2022-07-01T08:36:35;1.70;;;1.60;;
15246;SDS011;7726;48.820;9.248;2022-07-01T08:39:02;1.83;;;1.73;;
15246;SDS011;7726;48.820;9.248;2022-07-01T08:41:29;1.40;;;1.30;;
15246;SDS011;7726;48.820;9.248;2022-07-01T08:43:58;2.55;;;1.73;;
15246;SDS011;7726;48.820;9.248;2022-07-01T08:46:25;2.05;;;1.60;;
15246;SDS011;7726;48.820;9.248;2022-07-01T08:48:53;1.77;;;1.65;;
15246;SDS011;7726;48.820;9.248;2022-07-01T08:51:20;1.77;;;1.67;;
15246;SDS011;7726;48.820;9.248;2022-07-01T08:53:47;2.00;;;1.80;;
15246;SDS011;7726;48.820;9.248;2022-07-01T08:56:14;1.63;;;1.52;;
15246;SDS011;7726;48.820;9.248;2022-07-01T08:59:00;2.15;;;1.63;;
15246;SDS011;7726;48.820;9.248;2022-07-01T09:01:28;2.70;;;1.83;;
15246;SDS011;7726;48.820;9.248;2022-07-01T09:03:55;2.00;;;1.80;;
15246;SDS011;7726;48.820;9.248;2022-07-01T09:06:25;8.25;;;1.88;;
15246;SDS011;7726;48.820;9.248;2022-07-01T09:08:53;4.45;;;2.00;;
15246;SDS011;7726;48.820;9.248;2022-07-01T09:11:20;3.00;;;1.80;;
15246;SDS011;7726;48.820;9.248;2022-07-01T09:16:32;4.10;;;1.88;;
15246;SDS011;7726;48.820;9.248;2022-07-01T09:19:05;4.95;;;2.00;;
15246;SDS011;7726;48.820;9.248;2022-07-01T09:21:33;7.82;;;2.35;;
15246;SDS011;7726;48.820;9.248;2022-07-01T09:24:02;7.22;;;2.60;;
15246;SDS011;7726;48.820;9.248;2022-07-01T09:26:29;5.75;;;2.30;;
15246;SDS011;7726;48.820;9.248;2022-07-01T09:28:57;3.42;;;2.70;;
15246;SDS011;7726;48.820;9.248;2022-07-01T09:31:30;4.50;;;2.08;;
15246;SDS011;7726;48.820;9.248;2022-07-01T09:34:04;5.43;;;2.20;;
15246;SDS011;7726;48.820;9.248;2022-07-01T09:36:31;3.35;;;2.00;;
15246;SDS011;7726;48.820;9.248;2022-07-01T09:39:02;3.83;;;2.35;;
15246;SDS011;7726;48.820;9.248;2022-07-01T09:41:34;5.15;;;1.70;;
15246;SDS011;7726;48.820;9.248;2022-07-01T09:44:03;4.10;;;1.45;;
15246;SDS011;7726;48.820;9.248;2022-07-01T09:46:31;5.90;;;1.58;;
15246;SDS011;7726;48.820;9.248;2022-07-01T09:48:58;4.72;;;1.50;;
15246;SDS011;7726;48.820;9.248;2022-07-01T09:51:26;4.00;;;1.50;;
15246;SDS011;7726;48.820;9.248;2022-07-01T09:53:54;2.45;;;1.50;;
15246;SDS011;7726;48.820;9.248;2022-07-01T09:56:22;3.60;;;1.73;;
15246;SDS011;7726;48.820;9.248;2022-07-01T09:58:49;1.70;;;1.50;;
15246;SDS011;7726;48.820;9.248;2022-07-01T10:01:16;1.60;;;1.50;;
15246;SDS011;7726;48.820;9.248;2022-07-01T10:03:43;2.65;;;1.50;;
15246;SDS011;7726;48.820;9.248;2022-07-01T10:09:21;1.75;;;1.35;;
15246;SDS011;7726;48.820;9.248;2022-07-01T10:12:11;2.72;;;1.63;;
15246;SDS011;7726;48.820;9.248;2022-07-01T10:14:47;1.48;;;1.38;;
15246;SDS011;7726;48.820;9.248;2022-07-01T10:17:25;1.80;;;1.40;;
15246;SDS011;7726;48.820;9.248;2022-07-01T10:19:54;2.20;;;1.60;;
15246;SDS011;7726;48.820;9.248;2022-07-01T10:22:24;2.00;;;1.40;;
15246;SDS011;7726;48.820;9.248;2022-07-01T10:24:53;2.05;;;1.38;;
15246;SDS011;7726;48.820;9.248;2022-07-01T10:27:21;1.73;;;1.63;;
15246;SDS011;7726;48.820;9.248;2022-07-01T10:29:49;2.47;;;1.55;;
15246;SDS011;7726;48.820;9.248;2022-07-01T10:32:25;1.55;;;1.30;;
15246;SDS011;7726;48.820;9.248;2022-07-01T10:35:02;2.25;;;1.55;;
15246;SDS011;7726;48.820;9.248;2022-07-01T10:37:29;1.75;;;1.50;;
15246;SDS011;7726;48.820;9.248;2022-07-01T10:39:58;3.10;;;1.40;;
15246;SDS011;7726;48.820;9.248;2022-07-01T10:42:29;1.13;;;1.10;;
15246;SDS011;7726;48.820;9.248;2022-07-01T10:45:00;1.23;;;1.10;;
15246;SDS011;7726;48.820;9.248;2022-07-01T10:47:28;2.70;;;1.02;;
15246;SDS011;7726;48.820;9.248;2022-07-01T10:49:58;1.42;;;1.30;;
15246;SDS011;7726;48.820;9.248;2022-07-01T10:52:26;3.10;;;1.40;;
15246;SDS011;7726;48.820;9.248;2022-07-01T10:54:54;1.65;;;1.15;;
15246;SDS011;7726;48.820;9.248;2022-07-01T10:57:25;1.77;;;1.20;;
15246;SDS011;7726;48.820;9.248;2022-07-01T10:59:53;1.52;;;1.10;;
15246;SDS011;7726;48.820;9.248;2022-07-01T11:02:22;1.00;;;0.90;;
15246;SDS011;7726;48.820;9.248;2022-07-01T11:04:50;2.53;;;1.08;;
15246;SDS011;7726;48.820;9.248;2022-07-01T11:07:18;2.65;;;1.83;;
15246;SDS011;7726;48.820;9.248;2022-07-01T11:09:45;2.25;;;1.25;;
15246;SDS011;7726;48.820;9.248;2022-07-01T11:12:14;3.25;;;1.10;;
15246;SDS011;7726;48.820;9.248;2022-07-01T11:14:43;1.17;;;0.85;;
15246;SDS011;7726;48.820;9.248;2022-07-01T11:17:10;1.05;;;0.95;;
15246;SDS011;7726;48.820;9.248;2022-07-01T11:19:37;1.42;;;1.10;;
15246;SDS011;7726;48.820;9.248;2022-07-01T11:22:04;1.00;;;1.00;;
15246;SDS011;7726;48.820;9.248;2022-07-01T11:24:32;1.27;;;0.98;;
15246;SDS011;7726;48.820;9.248;2022-07-01T11:26:59;1.45;;;0.90;;
15246;SDS011;7726;48.820;9.248;2022-07-01T11:29:28;1.75;;;1.00;;
15246;SDS011;7726;48.820;9.248;2022-07-01T11:31:56;0.90;;;0.90;;
15246;SDS011;7726;48.820;9.248;2022-07-01T11:34:23;1.00;;;0.90;;
15246;SDS011;7726;48.820;9.248;2022-07-01T11:36:53;1.92;;;1.02;;
15246;SDS011;7726;48.820;9.248;2022-07-01T11:39:38;2.13;;;1.15;;
15246;SDS011;7726;48.820;9.248;2022-07-01T11:42:07;2.35;;;1.20;;
15246;SDS011;7726;48.820;9.248;2022-07-01T11:44:35;0.93;;;0.88;;
15246;SDS011;7726;48.820;9.248;2022-07-01T11:47:05;1.50;;;1.00;;
15246;SDS011;7726;48.820;9.248;2022-07-01T11:49:32;1.55;;;1.00;;
15246;SDS011;7726;48.820;9.248;2022-07-01T11:52:00;1.48;;;1.00;;
15246;SDS011;7726;48.820;9.248;2022-07-01T11:54:27;1.85;;;1.13;;
15246;SDS011;7726;48.820;9.248;2022-07-01T11:56:54;1.23;;;0.88;;
15246;SDS011;7726;48.820;9.248;2022-07-01T11:59:33;1.15;;;0.98;;
15246;SDS011;7726;48.820;9.248;2022-07-01T12:02:04;1.73;;;1.05;;
15246;SDS011;7726;48.820;9.248;2022-07-01T12:04:35;3.55;;;1.17;;
15246;SDS011;7726;48.820;9.248;2022-07-01T12:07:06;1.00;;;1.00;;
15246;SDS011;7726;48.820;9.248;2022-07-01T12:09:36;1.55;;;1.08;;
15246;SDS011;7726;48.820;9.248;2022-07-01T12:12:14;1.42;;;0.90;;
15246;SDS011;7726;48.820;9.248;2022-07-01T12:14:56;1.13;;;1.02;;
15246;SDS011;7726;48.820;9.248;2022-07-01T12:17:33;0.85;;;0.85;;
15246;SDS011;7726;48.820;9.248;2022-07-01T12:20:22;1.27;;;1.17;;
15246;SDS011;7726;48.820;9.248;2022-07-01T12:23:09;2.97;;;1.05;;
15246;SDS011;7726;48.820;9.248;2022-07-01T12:25:37;1.55;;;0.95;;
15246;SDS011;7726;48.820;9.248;2022-07-01T12:28:06;2.55;;;0.90;;
15246;SDS011;7726;48.820;9.248;2022-07-01T12:30:33;1.70;;;1.02;;
15246;SDS011;7726;48.820;9.248;2022-07-01T12:33:10;1.52;;;0.95;;
15246;SDS011;7726;48.820;9.248;2022-07-01T12:35:41;0.90;;;0.85;;
15246;SDS011;7726;48.820;9.248;2022-07-01T12:38:14;1.80;;;1.17;;
15246;SDS011;7726;48.820;9.248;2022-07-01T12:40:42;0.70;;;0.70;;
15246;SDS011;7726;48.820;9.248;2022-07-01T12:43:22;1.95;;;1.10;;
15246;SDS011;7726;48.820;9.248;2022-07-01T12:45:50;1.20;;;1.00;;
15246;SDS011;7726;48.820;9.248;2022-07-01T12:48:27;1.85;;;0.90;;
15246;SDS011;7726;48.820;9.248;2022-07-01T12:51:03;2.35;;;1.20;;
15246;SDS011;7726;48.820;9.248;2022-07-01T12:53:38;1.13;;;1.02;;
15246;SDS011;7726;48.820;9.248;2022-07-01T12:56:08;0.90;;;0.90;;
15246;SDS011;7726;48.820;9.248;2022-07-01T12:58:48;1.35;;;0.90;;
15246;SDS011;7726;48.820;9.248;2022-07-01T13:01:20;1.52;;;0.90;;
15246;SDS011;7726;48.820;9.248;2022-07-01T13:03:49;1.08;;;1.00;;
15246;SDS011;7726;48.820;9.248;2022-07-01T13:06:16;1.17;;;1.00;;
15246;SDS011;7726;48.820;9.248;2022-07-01T13:08:46;1.83;;;1.05;;
15246;SDS011;7726;48.820;9.248;2022-07-01T13:11:13;0.90;;;0.90;;
15246;SDS011;7726;48.820;9.248;2022-07-01T13:13:41;1.25;;;1.10;;
15246;SDS011;7726;48.820;9.248;2022-07-01T13:16:09;1.52;;;1.10;;
15246;SDS011;7726;48.820;9.248;2022-07-01T13:18:36;0.90;;;0.90;;
15246;SDS011;7726;48.820;9.248;2022-07-01T13:21:05;1.63;;;1.52;;
15246;SDS011;7726;48.820;9.248;2022-07-01T13:23:35;2.70;;;1.73;;
15246;SDS011;7726;48.820;9.248;2022-07-01T13:26:03;1.05;;;0.95;;
15246;SDS011;7726;48.820;9.248;2022-07-01T13:28:33;2.47;;;1.10;;
15246;SDS011;7726;48.820;9.248;2022-07-01T13:31:00;1.85;;;1.50;;
15246;SDS011;7726;48.820;9.248;2022-07-01T13:33:28;1.50;;;1.40;;
15246;SDS011;7726;48.820;9.248;2022-07-01T13:35:55;1.33;;;1.15;;
15246;SDS011;7726;48.820;9.248;2022-07-01T13:38:24;1.90;;;1.80;;
15246;SDS011;7726;48.820;9.248;2022-07-01T13:40:51;4.28;;;1.30;;
15246;SDS011;7726;48.820;9.248;2022-07-01T13:43:18;1.17;;;1.08;;
15246;SDS011;7726;48.820;9.248;2022-07-01T13:45:45;2.22;;;1.30;;
15246;SDS011;7726;48.820;9.248;2022-07-01T13:48:13;1.48;;;1.10;;
15246;SDS011;7726;48.820;9.248;2022-07-01T13:50:40;2.22;;;1.60;;
15246;SDS011;7726;48.820;9.248;2022-07-01T13:53:07;2.10;;;1.45;;
15246;SDS011;7726;48.820;9.248;2022-07-01T13:55:36;1.30;;;1.20;;
15246;SDS011;7726;48.820;9.248;2022-07-01T13:58:03;1.90;;;1.38;;
15246;SDS011;7726;48.820;9.248;2022-07-01T14:00:30;2.20;;;1.63;;
15246;SDS011;7726;48.820;9.248;2022-07-01T14:02:57;1.50;;;1.40;;
15246;SDS011;7726;48.820;9.248;2022-07-01T14:05:24;2.05;;;1.10;;
15246;SDS011;7726;48.820;9.248;2022-07-01T14:07:51;1.60;;;1.13;;
15246;SDS011;7726;48.820;9.248;2022-07-01T14:10:19;2.53;;;1.40;;
15246;SDS011;7726;48.820;9.248;2022-07-01T14:12:47;3.58;;;1.60;;
15246;SDS011;7726;48.820;9.248;2022-07-01T14:15:14;1.40;;;1.30;;
15246;SDS011;7726;48.820;9.248;2022-07-01T14:17:42;1.63;;;1.52;;
15246;SDS011;7726;48.820;9.248;2022-07-01T14:20:09;2.05;;;1.58;;
15246;SDS011;7726;48.820;9.248;2022-07-01T14:22:37;1.75;;;1.23;;
15246;SDS011;7726;48.820;9.248;2022-07-01T14:25:04;1.60;;;1.25;;
15246;SDS011;7726;48.820;9.248;2022-07-01T14:27:32;3.42;;;1.63;;
15246;SDS011;7726;48.820;9.248;2022-07-01T14:30:00;1.60;;;1.48;;
15246;SDS011;7726;48.820;9.248;2022-07-01T14:32:28;1.40;;;1.30;;
15246;SDS011;7726;48.820;9.248;2022-07-01T14:34:55;1.20;;;1.10;;
15246;SDS011;7726;48.820;9.248;2022-07-01T14:37:22;1.88;;;1.20;;
15246;SDS011;7726;48.820;9.248;2022-07-01T14:39:49;1.95;;;1.10;;
15246;SDS011;7726;48.820;9.248;2022-07-01T14:42:21;1.65;;;1.10;;
15246;SDS011;7726;48.820;9.248;2022-07-01T14:44:48;1.00;;;1.00;;
15246;SDS011;7726;48.820;9.248;2022-07-01T14:47:16;2.40;;;1.30;;
15246;SDS011;7726;48.820;9.248;2022-07-01T14:49:44;2.65;;;1.63;;
15246;SDS011;7726;48.820;9.248;2022-07-01T14:52:11;2.08;;;1.30;;
15246;SDS011;7726;48.820;9.248;2022-07-01T14:54:39;1.42;;;1.20;;
15246;SDS011;7726;48.820;9.248;2022-07-01T14:57:06;0.90;;;0.90;;
15246;SDS011;7726;48.820;9.248;2022-07-01T14:59:34;1.58;;;1.20;;
15246;SDS011;7726;48.820;9.248;2022-07-01T15:02:01;1.05;;;0.88;;
15246;SDS011;7726;48.820;9.248;2022-07-01T15:04:30;1.35;;;0.90;;
15246;SDS011;7726;48.820;9.248;2022-07-01T15:06:57;2.40;;;1.10;;
15246;SDS011;7726;48.820;9.248;2022-07-01T15:09:24;1.75;;;1.20;;
15246;SDS011;7726;48.820;9.248;2022-07-01T15:11:52;1.27;;;0.90;;
15246;SDS011;7726;48.820;9.248;2022-07-01T15:14:20;1.20;;;1.10;;